sensor_id;sensor_type;location;lat;lon;timestamp;P1;durP1;ratioP1;P2;durP2;ratioP2
44438;SDS011;30145;48.874;10.186;2023-02-02T00:01:33;11.17;;;3.40;;
44438;SDS011;30145;48.874;10.186;2023-02-02T00:04:01;7.07;;;4.27;;
44438;SDS011;30145;48.874;10.186;2023-02-02T00:06:28;6.60;;;3.33;;
44438;SDS011;30145;48.874;10.186;2023-02-02T00:08:57;8.67;;;3.90;;
44438;SDS011;30145;48.874;10.186;2023-02-02T00:11:25;7.23;;;3.30;;
44438;SDS011;30145;48.874;10.186;2023-02-02T00:13:53;8.60;;;3.60;;
44438;SDS011;30145;48.874;10.186;2023-02-02T00:18:57;9.17;;;3.13;;
44438;SDS011;30145;48.874;10.186;2023-02-02T00:21:26;7.37;;;3.30;;
44438;SDS011;30145;48.874;10.186;2023-02-02T00:23:53;6.17;;;4.07;;
44438;SDS011;30145;48.874;10.186;2023-02-02T00:26:20;8.50;;;3.40;;
44438;SDS011;30145;48.874;10.186;2023-02-02T00:28:48;7.57;;;3.73;;
44438;SDS011;30145;48.874;10.186;2023-02-02T00:31:15;10.47;;;3.20;;
44438;SDS011;30145;48.874;10.186;2023-02-02T00:33:45;10.90;;;3.80;;
44438;SDS011;30145;48.874;10.186;2023-02-02T00:36:13;8.33;;;3.70;;
44438;SDS011;30145;48.874;10.186;2023-02-02T00:38:40;7.30;;;3.20;;
44438;SDS011;30145;48.874;10.186;2023-02-02T00:41:07;7.13;;;3.37;;
44438;SDS011;30145;48.874;10.186;2023-02-02T00:43:34;6.60;;;2.97;;
44438;SDS011;30145;48.874;10.186;2023-02-02T00:46:01;4.60;;;2.93;;
44438;SDS011;30145;48.874;10.186;2023-02-02T00:48:28;10.87;;;3.43;;
44438;SDS011;30145;48.874;10.186;2023-02-02T00:50:55;7.20;;;3.70;;
44438;SDS011;30145;48.874;10.186;2023-02-02T00:53:22;7.03;;;3.53;;
44438;SDS011;30145;48.874;10.186;2023-02-02T00:55:49;6.10;;;3.23;;
44438;SDS011;30145;48.874;10.186;2023-02-02T00:58:16;6.30;;;2.80;;
44438;SDS011;30145;48.874;10.186;2023-02-02T01:00:43;5.37;;;2.80;;
44438;SDS011;30145;48.874;10.186;2023-02-02T01:03:11;6.80;;;3.30;;
44438;SDS011;30145;48.874;10.186;2023-02-02T01:05:38;8.40;;;3.80;;
44438;SDS011;30145;48.874;10.186;2023-02-02T01:08:06;8.13;;;3.70;;
44438;SDS011;30145;48.874;10.186;2023-02-02T01:10:33;9.93;;;4.07;;
44438;SDS011;30145;48.874;10.186;2023-02-02T01:13:01;5.73;;;3.10;;
44438;SDS011;30145;48.874;10.186;2023-02-02T01:15:28;8.53;;;4.97;;
44438;SDS011;30145;48.874;10.186;2023-02-02T01:17:56;5.70;;;3.23;;
44438;SDS011;30145;48.874;10.186;2023-02-02T01:20:23;5.70;;;3.20;;
44438;SDS011;30145;48.874;10.186;2023-02-02T01:22:51;6.40;;;3.20;;
44438;SDS011;30145;48.874;10.186;2023-02-02T01:25:18;6.70;;;3.30;;
44438;SDS011;30145;48.874;10.186;2023-02-02T01:27:45;7.43;;;3.10;;
44438;SDS011;30145;48.874;10.186;2023-02-02T01:30:12;10.03;;;3.23;;
44438;SDS011;30145;48.874;10.186;2023-02-02T01:32:40;7.57;;;2.77;;
44438;SDS011;30145;48.874;10.186;2023-02-02T01:35:07;5.20;;;2.90;;
44438;SDS011;30145;48.874;10.186;2023-02-02T01:37:35;7.20;;;2.83;;
44438;SDS011;30145;48.874;10.186;2023-02-02T01:40:05;5.53;;;3.03;;
44438;SDS011;30145;48.874;10.186;2023-02-02T01:42:32;6.67;;;3.30;;
44438;SDS011;30145;48.874;10.186;2023-02-02T01:45:02;5.33;;;2.77;;
44438;SDS011;30145;48.874;10.186;2023-02-02T01:47:49;8.73;;;3.33;;
44438;SDS011;30145;48.874;10.186;2023-02-02T01:50:20;6.10;;;3.10;;
44438;SDS011;30145;48.874;10.186;2023-02-02T01:52:51;4.60;;;2.87;;
44438;SDS011;30145;48.874;10.186;2023-02-02T01:55:20;7.93;;;2.90;;
44438;SDS011;30145;48.874;10.186;2023-02-02T01:57:54;5.23;;;3.00;;
44438;SDS011;30145;48.874;10.186;2023-02-02T02:00:25;7.27;;;3.20;;
44438;SDS011;30145;48.874;10.186;2023-02-02T02:02:55;5.03;;;2.80;;
44438;SDS011;30145;48.874;10.186;2023-02-02T02:05:26;7.27;;;3.83;;
44438;SDS011;30145;48.874;10.186;2023-02-02T02:07:59;4.97;;;2.53;;
44438;SDS011;30145;48.874;10.186;2023-02-02T02:10:36;6.10;;;3.20;;
44438;SDS011;30145;48.874;10.186;2023-02-02T02:13:03;5.10;;;2.90;;
44438;SDS011;30145;48.874;10.186;2023-02-02T02:15:32;7.93;;;2.67;;
44438;SDS011;30145;48.874;10.186;2023-02-02T02:18:27;4.13;;;2.50;;
44438;SDS011;30145;48.874;10.186;2023-02-02T02:28:58;4.23;;;2.40;;
44438;SDS011;30145;48.874;10.186;2023-02-02T02:31:01;5.40;;;2.90;;
44438;SDS011;30145;48.874;10.186;2023-02-02T02:33:43;3.77;;;2.30;;
44438;SDS011;30145;48.874;10.186;2023-02-02T02:41:25;3.90;;;2.47;;
44438;SDS011;30145;48.874;10.186;2023-02-02T02:44:05;3.63;;;2.23;;
44438;SDS011;30145;48.874;10.186;2023-02-02T02:46:34;2.83;;;1.80;;
44438;SDS011;30145;48.874;10.186;2023-02-02T02:49:02;3.80;;;2.07;;
44438;SDS011;30145;48.874;10.186;2023-02-02T02:54:21;3.70;;;1.80;;
44438;SDS011;30145;48.874;10.186;2023-02-02T03:00:01;3.17;;;2.30;;
44438;SDS011;30145;48.874;10.186;2023-02-02T03:10:51;2.10;;;1.90;;
44438;SDS011;30145;48.874;10.186;2023-02-02T03:13:21;7.07;;;2.50;;
44438;SDS011;30145;48.874;10.186;2023-02-02T03:15:48;6.23;;;2.33;;
44438;SDS011;30145;48.874;10.186;2023-02-02T03:18:16;3.23;;;2.07;;
44438;SDS011;30145;48.874;10.186;2023-02-02T03:20:44;5.07;;;2.20;;
44438;SDS011;30145;48.874;10.186;2023-02-02T03:23:11;2.97;;;1.90;;
44438;SDS011;30145;48.874;10.186;2023-02-02T03:25:39;4.93;;;2.20;;
44438;SDS011;30145;48.874;10.186;2023-02-02T03:28:07;3.60;;;2.50;;
44438;SDS011;30145;48.874;10.186;2023-02-02T03:30:34;3.20;;;2.33;;
44438;SDS011;30145;48.874;10.186;2023-02-02T03:33:02;4.57;;;2.30;;
44438;SDS011;30145;48.874;10.186;2023-02-02T03:35:30;4.20;;;2.30;;
44438;SDS011;30145;48.874;10.186;2023-02-02T03:37:57;4.30;;;1.97;;
44438;SDS011;30145;48.874;10.186;2023-02-02T03:40:24;6.13;;;2.00;;
44438;SDS011;30145;48.874;10.186;2023-02-02T03:42:52;6.13;;;2.90;;
44438;SDS011;30145;48.874;10.186;2023-02-02T03:45:19;6.83;;;2.43;;
44438;SDS011;30145;48.874;10.186;2023-02-02T03:47:46;3.30;;;2.43;;
44438;SDS011;30145;48.874;10.186;2023-02-02T03:50:13;5.07;;;2.13;;
44438;SDS011;30145;48.874;10.186;2023-02-02T03:52:41;5.50;;;2.23;;
44438;SDS011;30145;48.874;10.186;2023-02-02T03:55:08;4.63;;;2.00;;
44438;SDS011;30145;48.874;10.186;2023-02-02T03:57:35;4.60;;;2.80;;
44438;SDS011;30145;48.874;10.186;2023-02-02T04:00:02;3.90;;;2.47;;
44438;SDS011;30145;48.874;10.186;2023-02-02T04:02:29;4.80;;;2.57;;
44438;SDS011;30145;48.874;10.186;2023-02-02T04:04:56;4.20;;;2.60;;
44438;SDS011;30145;48.874;10.186;2023-02-02T04:07:23;5.37;;;3.20;;
44438;SDS011;30145;48.874;10.186;2023-02-02T04:09:50;6.90;;;2.97;;
44438;SDS011;30145;48.874;10.186;2023-02-02T04:12:17;6.40;;;3.10;;
44438;SDS011;30145;48.874;10.186;2023-02-02T04:14:44;4.80;;;3.17;;
44438;SDS011;30145;48.874;10.186;2023-02-02T04:17:12;5.13;;;2.83;;
44438;SDS011;30145;48.874;10.186;2023-02-02T04:19:38;4.30;;;2.50;;
44438;SDS011;30145;48.874;10.186;2023-02-02T04:22:16;7.70;;;3.10;;
44438;SDS011;30145;48.874;10.186;2023-02-02T04:24:43;6.60;;;2.80;;
44438;SDS011;30145;48.874;10.186;2023-02-02T04:27:10;3.33;;;2.33;;
44438;SDS011;30145;48.874;10.186;2023-02-02T04:29:37;4.03;;;2.23;;
44438;SDS011;30145;48.874;10.186;2023-02-02T04:32:04;3.10;;;2.37;;
44438;SDS011;30145;48.874;10.186;2023-02-02T04:34:31;3.77;;;2.50;;
44438;SDS011;30145;48.874;10.186;2023-02-02T04:36:58;5.03;;;2.90;;
44438;SDS011;30145;48.874;10.186;2023-02-02T04:39:25;4.10;;;2.20;;
44438;SDS011;30145;48.874;10.186;2023-02-02T04:41:52;4.37;;;2.27;;
44438;SDS011;30145;48.874;10.186;2023-02-02T04:44:20;3.37;;;2.20;;
44438;SDS011;30145;48.874;10.186;2023-02-02T04:46:47;3.63;;;3.07;;
44438;SDS011;30145;48.874;10.186;2023-02-02T04:49:14;5.23;;;2.37;;
44438;SDS011;30145;48.874;10.186;2023-02-02T04:51:41;3.30;;;2.20;;
44438;SDS011;30145;48.874;10.186;2023-02-02T04:54:09;4.37;;;2.63;;
44438;SDS011;30145;48.874;10.186;2023-02-02T04:56:36;4.40;;;2.60;;
44438;SDS011;30145;48.874;10.186;2023-02-02T04:59:04;5.13;;;2.30;;
44438;SDS011;30145;48.874;10.186;2023-02-02T05:01:31;6.80;;;2.87;;
44438;SDS011;30145;48.874;10.186;2023-02-02T05:03:58;5.80;;;2.90;;
44438;SDS011;30145;48.874;10.186;2023-02-02T05:06:25;6.57;;;3.10;;
44438;SDS011;30145;48.874;10.186;2023-02-02T05:08:52;5.10;;;3.37;;
44438;SDS011;30145;48.874;10.186;2023-02-02T05:11:20;7.97;;;3.10;;
44438;SDS011;30145;48.874;10.186;2023-02-02T05:13:52;4.33;;;2.80;;
44438;SDS011;30145;48.874;10.186;2023-02-02T05:16:20;8.33;;;6.77;;
44438;SDS011;30145;48.874;10.186;2023-02-02T05:18:53;8.03;;;3.60;;
44438;SDS011;30145;48.874;10.186;2023-02-02T05:21:22;6.30;;;3.07;;
44438;SDS011;30145;48.874;10.186;2023-02-02T05:23:49;6.97;;;3.30;;
44438;SDS011;30145;48.874;10.186;2023-02-02T05:26:17;3.50;;;3.20;;
44438;SDS011;30145;48.874;10.186;2023-02-02T05:28:47;9.33;;;3.77;;
44438;SDS011;30145;48.874;10.186;2023-02-02T05:31:14;6.53;;;4.00;;
44438;SDS011;30145;48.874;10.186;2023-02-02T05:33:41;4.43;;;4.00;;
44438;SDS011;30145;48.874;10.186;2023-02-02T05:36:09;6.43;;;3.43;;
44438;SDS011;30145;48.874;10.186;2023-02-02T05:38:36;5.20;;;3.13;;
44438;SDS011;30145;48.874;10.186;2023-02-02T05:41:03;7.60;;;3.77;;
44438;SDS011;30145;48.874;10.186;2023-02-02T05:43:31;5.63;;;3.73;;
44438;SDS011;30145;48.874;10.186;2023-02-02T05:45:59;4.13;;;3.43;;
44438;SDS011;30145;48.874;10.186;2023-02-02T05:48:27;6.33;;;3.57;;
44438;SDS011;30145;48.874;10.186;2023-02-02T05:53:38;6.07;;;3.60;;
44438;SDS011;30145;48.874;10.186;2023-02-02T05:56:05;5.77;;;3.50;;
44438;SDS011;30145;48.874;10.186;2023-02-02T05:58:33;6.70;;;3.57;;
44438;SDS011;30145;48.874;10.186;2023-02-02T06:01:00;7.67;;;3.60;;
44438;SDS011;30145;48.874;10.186;2023-02-02T06:03:27;6.07;;;3.33;;
44438;SDS011;30145;48.874;10.186;2023-02-02T06:05:54;7.03;;;3.37;;
44438;SDS011;30145;48.874;10.186;2023-02-02T06:08:21;4.93;;;2.70;;
44438;SDS011;30145;48.874;10.186;2023-02-02T06:10:48;9.27;;;4.23;;
44438;SDS011;30145;48.874;10.186;2023-02-02T06:13:16;4.90;;;3.20;;
44438;SDS011;30145;48.874;10.186;2023-02-02T06:15:43;10.17;;;4.90;;
44438;SDS011;30145;48.874;10.186;2023-02-02T06:18:10;11.27;;;3.33;;
44438;SDS011;30145;48.874;10.186;2023-02-02T06:20:37;5.23;;;3.60;;
44438;SDS011;30145;48.874;10.186;2023-02-02T06:23:04;8.07;;;3.90;;
44438;SDS011;30145;48.874;10.186;2023-02-02T06:25:32;5.00;;;3.27;;
44438;SDS011;30145;48.874;10.186;2023-02-02T06:28:00;9.90;;;4.40;;
44438;SDS011;30145;48.874;10.186;2023-02-02T06:30:27;8.23;;;3.80;;
44438;SDS011;30145;48.874;10.186;2023-02-02T06:32:54;6.23;;;3.33;;
44438;SDS011;30145;48.874;10.186;2023-02-02T06:35:21;9.77;;;3.47;;
44438;SDS011;30145;48.874;10.186;2023-02-02T06:37:49;8.63;;;3.70;;
44438;SDS011;30145;48.874;10.186;2023-02-02T06:40:16;7.10;;;3.37;;
44438;SDS011;30145;48.874;10.186;2023-02-02T06:42:44;9.20;;;3.80;;
44438;SDS011;30145;48.874;10.186;2023-02-02T06:45:11;6.17;;;3.80;;
44438;SDS011;30145;48.874;10.186;2023-02-02T06:47:38;5.90;;;3.40;;
44438;SDS011;30145;48.874;10.186;2023-02-02T06:50:06;7.53;;;3.33;;
44438;SDS011;30145;48.874;10.186;2023-02-02T06:52:34;5.90;;;3.77;;
44438;SDS011;30145;48.874;10.186;2023-02-02T06:55:01;6.10;;;3.30;;
44438;SDS011;30145;48.874;10.186;2023-02-02T06:57:29;8.73;;;3.70;;
44438;SDS011;30145;48.874;10.186;2023-02-02T06:59:56;5.03;;;3.20;;
44438;SDS011;30145;48.874;10.186;2023-02-02T07:02:23;9.67;;;3.20;;
44438;SDS011;30145;48.874;10.186;2023-02-02T07:04:52;6.33;;;3.23;;
44438;SDS011;30145;48.874;10.186;2023-02-02T07:07:19;6.60;;;3.90;;
44438;SDS011;30145;48.874;10.186;2023-02-02T07:09:46;6.67;;;3.00;;
44438;SDS011;30145;48.874;10.186;2023-02-02T07:12:13;6.40;;;3.30;;
44438;SDS011;30145;48.874;10.186;2023-02-02T07:14:40;4.97;;;2.80;;
44438;SDS011;30145;48.874;10.186;2023-02-02T07:17:07;5.23;;;2.50;;
44438;SDS011;30145;48.874;10.186;2023-02-02T07:19:34;4.20;;;2.17;;
44438;SDS011;30145;48.874;10.186;2023-02-02T07:22:01;3.27;;;2.70;;
44438;SDS011;30145;48.874;10.186;2023-02-02T07:24:28;5.20;;;3.20;;
44438;SDS011;30145;48.874;10.186;2023-02-02T07:26:55;4.13;;;2.90;;
44438;SDS011;30145;48.874;10.186;2023-02-02T07:29:23;5.00;;;2.77;;
44438;SDS011;30145;48.874;10.186;2023-02-02T07:31:51;6.67;;;2.83;;
44438;SDS011;30145;48.874;10.186;2023-02-02T07:34:18;4.80;;;2.87;;
44438;SDS011;30145;48.874;10.186;2023-02-02T07:36:45;5.50;;;3.33;;
44438;SDS011;30145;48.874;10.186;2023-02-02T07:39:12;4.40;;;2.50;;
44438;SDS011;30145;48.874;10.186;2023-02-02T07:41:39;6.07;;;2.87;;
44438;SDS011;30145;48.874;10.186;2023-02-02T07:44:09;4.17;;;2.60;;
44438;SDS011;30145;48.874;10.186;2023-02-02T07:46:41;9.77;;;3.07;;
44438;SDS011;30145;48.874;10.186;2023-02-02T07:49:13;6.43;;;2.77;;
44438;SDS011;30145;48.874;10.186;2023-02-02T07:51:41;6.67;;;3.17;;
44438;SDS011;30145;48.874;10.186;2023-02-02T07:54:12;3.67;;;2.50;;
44438;SDS011;30145;48.874;10.186;2023-02-02T07:56:40;4.70;;;3.07;;
44438;SDS011;30145;48.874;10.186;2023-02-02T07:59:08;4.43;;;2.60;;
44438;SDS011;30145;48.874;10.186;2023-02-02T08:01:36;4.60;;;2.70;;
44438;SDS011;30145;48.874;10.186;2023-02-02T08:04:03;6.20;;;3.20;;
44438;SDS011;30145;48.874;10.186;2023-02-02T08:06:31;8.07;;;3.83;;
44438;SDS011;30145;48.874;10.186;2023-02-02T08:09:01;3.20;;;2.40;;
44438;SDS011;30145;48.874;10.186;2023-02-02T08:11:29;9.13;;;5.00;;
44438;SDS011;30145;48.874;10.186;2023-02-02T08:13:57;8.47;;;4.67;;
44438;SDS011;30145;48.874;10.186;2023-02-02T08:16:25;10.10;;;5.07;;
44438;SDS011;30145;48.874;10.186;2023-02-02T08:18:53;11.23;;;5.63;;
44438;SDS011;30145;48.874;10.186;2023-02-02T08:21:20;12.13;;;6.77;;
44438;SDS011;30145;48.874;10.186;2023-02-02T08:23:48;11.47;;;5.77;;
44438;SDS011;30145;48.874;10.186;2023-02-02T08:26:18;11.10;;;6.50;;
44438;SDS011;30145;48.874;10.186;2023-02-02T08:28:50;5.77;;;3.63;;
44438;SDS011;30145;48.874;10.186;2023-02-02T08:31:22;9.80;;;5.47;;
44438;SDS011;30145;48.874;10.186;2023-02-02T08:33:51;9.43;;;5.53;;
44438;SDS011;30145;48.874;10.186;2023-02-02T08:36:21;10.87;;;4.67;;
44438;SDS011;30145;48.874;10.186;2023-02-02T08:38:49;18.37;;;7.67;;
44438;SDS011;30145;48.874;10.186;2023-02-02T08:41:17;8.37;;;3.67;;
44438;SDS011;30145;48.874;10.186;2023-02-02T08:43:46;6.00;;;4.07;;
44438;SDS011;30145;48.874;10.186;2023-02-02T08:46:14;10.87;;;5.30;;
44438;SDS011;30145;48.874;10.186;2023-02-02T08:48:42;5.23;;;3.43;;
44438;SDS011;30145;48.874;10.186;2023-02-02T08:51:11;8.00;;;4.53;;
44438;SDS011;30145;48.874;10.186;2023-02-02T08:53:41;3.83;;;3.10;;
44438;SDS011;30145;48.874;10.186;2023-02-02T08:56:11;5.03;;;3.47;;
44438;SDS011;30145;48.874;10.186;2023-02-02T08:58:46;9.03;;;4.50;;
44438;SDS011;30145;48.874;10.186;2023-02-02T09:03:52;7.60;;;3.37;;
44438;SDS011;30145;48.874;10.186;2023-02-02T09:06:20;8.10;;;4.20;;
44438;SDS011;30145;48.874;10.186;2023-02-02T09:08:47;5.03;;;3.10;;
44438;SDS011;30145;48.874;10.186;2023-02-02T09:11:15;7.07;;;4.10;;
44438;SDS011;30145;48.874;10.186;2023-02-02T09:13:44;7.10;;;4.10;;
44438;SDS011;30145;48.874;10.186;2023-02-02T09:16:13;14.13;;;6.77;;
44438;SDS011;30145;48.874;10.186;2023-02-02T09:18:42;5.83;;;4.00;;
44438;SDS011;30145;48.874;10.186;2023-02-02T09:21:11;12.53;;;7.80;;
44438;SDS011;30145;48.874;10.186;2023-02-02T09:23:40;10.00;;;4.40;;
44438;SDS011;30145;48.874;10.186;2023-02-02T09:28:41;6.07;;;3.30;;
44438;SDS011;30145;48.874;10.186;2023-02-02T09:31:09;6.13;;;3.57;;
44438;SDS011;30145;48.874;10.186;2023-02-02T09:33:36;5.97;;;3.57;;
44438;SDS011;30145;48.874;10.186;2023-02-02T09:36:25;12.20;;;5.30;;
44438;SDS011;30145;48.874;10.186;2023-02-02T09:38:52;5.43;;;3.17;;
44438;SDS011;30145;48.874;10.186;2023-02-02T09:49:10;14.30;;;6.47;;
44438;SDS011;30145;48.874;10.186;2023-02-02T09:51:41;18.90;;;9.30;;
44438;SDS011;30145;48.874;10.186;2023-02-02T09:54:22;15.80;;;6.73;;
44438;SDS011;30145;48.874;10.186;2023-02-02T09:57:03;8.33;;;4.50;;
44438;SDS011;30145;48.874;10.186;2023-02-02T09:59:34;11.77;;;7.07;;
44438;SDS011;30145;48.874;10.186;2023-02-02T10:02:04;28.20;;;10.13;;
44438;SDS011;30145;48.874;10.186;2023-02-02T10:04:39;25.70;;;10.53;;
44438;SDS011;30145;48.874;10.186;2023-02-02T10:07:12;20.87;;;9.17;;
44438;SDS011;30145;48.874;10.186;2023-02-02T10:15:01;9.47;;;5.47;;
44438;SDS011;30145;48.874;10.186;2023-02-02T10:17:45;8.93;;;4.93;;
44438;SDS011;30145;48.874;10.186;2023-02-02T10:23:12;10.03;;;6.03;;
44438;SDS011;30145;48.874;10.186;2023-02-02T10:25:54;20.03;;;7.90;;
44438;SDS011;30145;48.874;10.186;2023-02-02T10:28:49;11.53;;;5.00;;
44438;SDS011;30145;48.874;10.186;2023-02-02T10:31:42;14.80;;;6.60;;
44438;SDS011;30145;48.874;10.186;2023-02-02T10:34:21;9.33;;;5.77;;
44438;SDS011;30145;48.874;10.186;2023-02-02T10:45:49;9.47;;;5.07;;
44438;SDS011;30145;48.874;10.186;2023-02-02T10:48:18;10.63;;;4.40;;
44438;SDS011;30145;48.874;10.186;2023-02-02T10:50:52;11.87;;;4.60;;
44438;SDS011;30145;48.874;10.186;2023-02-02T10:53:20;6.70;;;4.13;;
44438;SDS011;30145;48.874;10.186;2023-02-02T10:55:49;9.27;;;5.10;;
44438;SDS011;30145;48.874;10.186;2023-02-02T11:00:58;11.23;;;6.20;;
44438;SDS011;30145;48.874;10.186;2023-02-02T11:03:27;12.07;;;4.50;;
44438;SDS011;30145;48.874;10.186;2023-02-02T11:05:56;13.73;;;5.90;;
44438;SDS011;30145;48.874;10.186;2023-02-02T11:08:44;14.20;;;5.10;;
44438;SDS011;30145;48.874;10.186;2023-02-02T11:16:40;11.17;;;4.80;;
44438;SDS011;30145;48.874;10.186;2023-02-02T11:21:46;9.37;;;4.57;;
44438;SDS011;30145;48.874;10.186;2023-02-02T11:27:25;8.63;;;4.23;;
44438;SDS011;30145;48.874;10.186;2023-02-02T11:29:54;17.63;;;7.63;;
44438;SDS011;30145;48.874;10.186;2023-02-02T11:37:29;11.07;;;4.20;;
44438;SDS011;30145;48.874;10.186;2023-02-02T11:42:46;8.17;;;3.87;;
44438;SDS011;30145;48.874;10.186;2023-02-02T11:45:17;16.13;;;8.17;;
44438;SDS011;30145;48.874;10.186;2023-02-02T11:47:46;5.60;;;3.23;;
44438;SDS011;30145;48.874;10.186;2023-02-02T11:50:21;4.70;;;3.00;;
44438;SDS011;30145;48.874;10.186;2023-02-02T11:52:51;5.57;;;2.87;;
44438;SDS011;30145;48.874;10.186;2023-02-02T11:55:20;6.67;;;2.93;;
44438;SDS011;30145;48.874;10.186;2023-02-02T12:00:50;4.67;;;2.97;;
44438;SDS011;30145;48.874;10.186;2023-02-02T12:03:25;5.70;;;3.57;;
44438;SDS011;30145;48.874;10.186;2023-02-02T12:05:57;4.63;;;3.00;;
44438;SDS011;30145;48.874;10.186;2023-02-02T12:08:24;9.10;;;3.47;;
44438;SDS011;30145;48.874;10.186;2023-02-02T12:16:09;5.80;;;3.97;;
44438;SDS011;30145;48.874;10.186;2023-02-02T12:30:26;7.00;;;2.43;;
44438;SDS011;30145;48.874;10.186;2023-02-02T12:36:00;4.17;;;2.87;;
44438;SDS011;30145;48.874;10.186;2023-02-02T12:38:51;8.70;;;3.07;;
44438;SDS011;30145;48.874;10.186;2023-02-02T12:44:30;3.60;;;2.60;;
44438;SDS011;30145;48.874;10.186;2023-02-02T12:47:17;4.63;;;3.00;;
44438;SDS011;30145;48.874;10.186;2023-02-02T12:50:29;5.07;;;2.80;;
44438;SDS011;30145;48.874;10.186;2023-02-02T12:53:13;5.40;;;2.60;;
44438;SDS011;30145;48.874;10.186;2023-02-02T12:55:45;4.63;;;2.40;;
44438;SDS011;30145;48.874;10.186;2023-02-02T13:08:57;7.37;;;2.30;;
44438;SDS011;30145;48.874;10.186;2023-02-02T13:14:21;4.03;;;2.43;;
44438;SDS011;30145;48.874;10.186;2023-02-02T13:20:26;6.17;;;3.20;;
44438;SDS011;30145;48.874;10.186;2023-02-02T13:23:04;4.87;;;2.07;;
44438;SDS011;30145;48.874;10.186;2023-02-02T13:25:51;4.63;;;2.37;;
44438;SDS011;30145;48.874;10.186;2023-02-02T13:28:26;5.33;;;2.20;;
44438;SDS011;30145;48.874;10.186;2023-02-02T13:30:58;3.67;;;2.20;;
44438;SDS011;30145;48.874;10.186;2023-02-02T13:33:29;3.33;;;2.30;;
44438;SDS011;30145;48.874;10.186;2023-02-02T13:36:02;7.00;;;2.60;;
44438;SDS011;30145;48.874;10.186;2023-02-02T13:38:34;4.97;;;2.43;;
44438;SDS011;30145;48.874;10.186;2023-02-02T13:41:05;3.80;;;2.47;;
44438;SDS011;30145;48.874;10.186;2023-02-02T13:46:25;4.33;;;2.40;;
44438;SDS011;30145;48.874;10.186;2023-02-02T14:00:27;5.37;;;2.50;;
44438;SDS011;30145;48.874;10.186;2023-02-02T14:03:00;5.27;;;2.63;;
44438;SDS011;30145;48.874;10.186;2023-02-02T14:10:36;4.47;;;2.60;;
44438;SDS011;30145;48.874;10.186;2023-02-02T14:15:59;10.10;;;4.70;;
44438;SDS011;30145;48.874;10.186;2023-02-02T14:22:07;11.77;;;5.80;;
44438;SDS011;30145;48.874;10.186;2023-02-02T14:37:40;12.77;;;6.50;;
44438;SDS011;30145;48.874;10.186;2023-02-02T14:51:21;21.73;;;9.47;;
44438;SDS011;30145;48.874;10.186;2023-02-02T14:53:54;6.57;;;3.73;;
44438;SDS011;30145;48.874;10.186;2023-02-02T14:59:35;10.27;;;4.27;;
44438;SDS011;30145;48.874;10.186;2023-02-02T15:04:40;4.07;;;3.30;;
44438;SDS011;30145;48.874;10.186;2023-02-02T15:09:52;6.30;;;3.70;;
44438;SDS011;30145;48.874;10.186;2023-02-02T15:12:34;5.57;;;3.50;;
44438;SDS011;30145;48.874;10.186;2023-02-02T15:15:05;7.90;;;3.77;;
44438;SDS011;30145;48.874;10.186;2023-02-02T15:20:47;5.90;;;3.33;;
44438;SDS011;30145;48.874;10.186;2023-02-02T15:26:18;5.47;;;3.70;;
44438;SDS011;30145;48.874;10.186;2023-02-02T15:28:56;5.53;;;3.77;;
44438;SDS011;30145;48.874;10.186;2023-02-02T15:31:34;9.50;;;4.57;;
44438;SDS011;30145;48.874;10.186;2023-02-02T15:34:08;5.10;;;3.60;;
44438;SDS011;30145;48.874;10.186;2023-02-02T15:36:37;7.30;;;4.03;;
44438;SDS011;30145;48.874;10.186;2023-02-02T15:41:44;6.30;;;4.70;;
44438;SDS011;30145;48.874;10.186;2023-02-02T15:44:25;11.67;;;5.20;;
44438;SDS011;30145;48.874;10.186;2023-02-02T15:46:54;7.03;;;4.40;;
44438;SDS011;30145;48.874;10.186;2023-02-02T15:49:27;9.30;;;5.03;;
44438;SDS011;30145;48.874;10.186;2023-02-02T15:52:02;22.37;;;16.60;;
44438;SDS011;30145;48.874;10.186;2023-02-02T15:54:51;16.00;;;10.87;;
44438;SDS011;30145;48.874;10.186;2023-02-02T15:59:52;7.13;;;4.50;;
44438;SDS011;30145;48.874;10.186;2023-02-02T16:05:21;7.60;;;3.90;;
44438;SDS011;30145;48.874;10.186;2023-02-02T16:08:25;7.03;;;3.70;;
44438;SDS011;30145;48.874;10.186;2023-02-02T16:11:01;10.93;;;6.23;;
44438;SDS011;30145;48.874;10.186;2023-02-02T16:13:38;6.53;;;4.70;;
44438;SDS011;30145;48.874;10.186;2023-02-02T16:16:20;8.50;;;6.20;;
44438;SDS011;30145;48.874;10.186;2023-02-02T16:24:27;8.03;;;5.23;;
44438;SDS011;30145;48.874;10.186;2023-02-02T16:27:22;5.93;;;4.97;;
44438;SDS011;30145;48.874;10.186;2023-02-02T16:29:51;7.50;;;4.17;;
44438;SDS011;30145;48.874;10.186;2023-02-02T16:32:29;6.03;;;4.90;;
44438;SDS011;30145;48.874;10.186;2023-02-02T16:34:56;6.10;;;4.83;;
44438;SDS011;30145;48.874;10.186;2023-02-02T16:37:27;7.07;;;5.50;;
44438;SDS011;30145;48.874;10.186;2023-02-02T16:43:05;7.07;;;3.67;;
44438;SDS011;30145;48.874;10.186;2023-02-02T16:45:52;11.23;;;4.33;;
44438;SDS011;30145;48.874;10.186;2023-02-02T16:48:37;6.23;;;4.70;;
44438;SDS011;30145;48.874;10.186;2023-02-02T16:53:43;5.40;;;3.80;;
44438;SDS011;30145;48.874;10.186;2023-02-02T17:05:07;9.37;;;4.70;;
44438;SDS011;30145;48.874;10.186;2023-02-02T17:07:46;8.87;;;4.30;;
44438;SDS011;30145;48.874;10.186;2023-02-02T17:12:45;7.97;;;5.20;;
44438;SDS011;30145;48.874;10.186;2023-02-02T17:17:46;7.10;;;4.70;;
44438;SDS011;30145;48.874;10.186;2023-02-02T17:20:14;6.80;;;4.37;;
44438;SDS011;30145;48.874;10.186;2023-02-02T17:22:43;4.70;;;4.00;;
44438;SDS011;30145;48.874;10.186;2023-02-02T17:25:13;9.47;;;4.30;;
44438;SDS011;30145;48.874;10.186;2023-02-02T17:27:42;5.63;;;4.17;;
44438;SDS011;30145;48.874;10.186;2023-02-02T17:30:14;11.10;;;5.63;;
44438;SDS011;30145;48.874;10.186;2023-02-02T17:32:42;11.03;;;6.37;;
44438;SDS011;30145;48.874;10.186;2023-02-02T17:35:17;7.03;;;4.37;;
44438;SDS011;30145;48.874;10.186;2023-02-02T17:37:48;7.53;;;4.80;;
44438;SDS011;30145;48.874;10.186;2023-02-02T17:40:19;6.37;;;5.07;;
44438;SDS011;30145;48.874;10.186;2023-02-02T17:42:48;6.57;;;4.17;;
44438;SDS011;30145;48.874;10.186;2023-02-02T17:45:21;6.60;;;4.10;;
44438;SDS011;30145;48.874;10.186;2023-02-02T17:47:50;9.30;;;5.17;;
44438;SDS011;30145;48.874;10.186;2023-02-02T17:50:17;8.00;;;4.63;;
44438;SDS011;30145;48.874;10.186;2023-02-02T17:52:44;8.43;;;4.50;;
44438;SDS011;30145;48.874;10.186;2023-02-02T17:57:52;6.97;;;4.17;;
44438;SDS011;30145;48.874;10.186;2023-02-02T18:00:20;6.23;;;4.77;;
44438;SDS011;30145;48.874;10.186;2023-02-02T18:02:50;8.50;;;5.33;;
44438;SDS011;30145;48.874;10.186;2023-02-02T18:05:20;8.70;;;4.90;;
44438;SDS011;30145;48.874;10.186;2023-02-02T18:07:46;9.13;;;5.27;;
44438;SDS011;30145;48.874;10.186;2023-02-02T18:10:14;10.43;;;5.63;;
44438;SDS011;30145;48.874;10.186;2023-02-02T18:12:41;7.93;;;4.53;;
44438;SDS011;30145;48.874;10.186;2023-02-02T18:15:10;9.10;;;5.07;;
44438;SDS011;30145;48.874;10.186;2023-02-02T18:17:40;4.40;;;4.00;;
44438;SDS011;30145;48.874;10.186;2023-02-02T18:20:08;7.83;;;4.20;;
44438;SDS011;30145;48.874;10.186;2023-02-02T18:22:37;8.90;;;4.03;;
44438;SDS011;30145;48.874;10.186;2023-02-02T18:25:04;6.33;;;4.40;;
44438;SDS011;30145;48.874;10.186;2023-02-02T18:27:31;9.10;;;4.47;;
44438;SDS011;30145;48.874;10.186;2023-02-02T18:29:58;6.60;;;5.00;;
44438;SDS011;30145;48.874;10.186;2023-02-02T18:32:25;8.37;;;4.90;;
44438;SDS011;30145;48.874;10.186;2023-02-02T18:34:52;8.43;;;4.40;;
44438;SDS011;30145;48.874;10.186;2023-02-02T18:37:22;5.13;;;3.37;;
44438;SDS011;30145;48.874;10.186;2023-02-02T18:39:49;7.03;;;4.10;;